Ridgewood, California
Current Conditions -  °F | °C
As of 5:15 AM on Thursday 30 Oct 2014 (Local Time) from KTRK Reporting Station
Haze Haze  
Wind Chill: 28°   Ceiling: Unl
Heat Index: 28°   Visibility: 1.7mi
Dew Point: 28°   Wind: 0mph
Humidity: 100%   Direction: NA
Pressure: 30.21"   Gusts: NA
Location:  39.2392°N, 120.102°W
Report Text: KTRK 301215Z AUTO 00000KT 1 3/4SM BR SCT002 M02/M02 A3021 RMK AO2
Loading
Personal Weather Stations






























Interactive Weather Map
Tropical Storm Tracking
New forecast layout! Learn more

10-Day Weather Forecast

Advertisements
Track Severe Weather on mobile